Time;durP1;ratioP1;P1;durP2;ratioP2;P2;SDS_P1;SDS_P2;PMS_P1;PMS_P2;Temp;Humidity;BMP_temperature;BMP_pressure;BME280_temperature;BME280_humidity;BME280_pressure;Samples;Min_cycle;Max_cycle;Signal;HPM_P1;HPM_P2
2023/09/15 00:03:03;;;;;;;23.30;16.27;;;;;;;;;;6222039;28;20120;-76
2023/09/15 00:06:05;;;;;;;25.77;17.10;;;;;;;;;;6223855;28;20334;-77
2023/09/15 00:09:14;;;;;;;25.52;17.75;;;;;;;;;;6221681;28;20105;-77
2023/09/15 00:12:16;;;;;;;24.05;16.27;;;;;;;;;;6223440;28;20050;-77
2023/09/15 00:15:18;;;;;;;20.80;13.93;;;;;;;;;;6223629;28;20151;-76
2023/09/15 00:18:19;;;;;;;20.75;13.90;;;;;;;;;;6224447;28;20053;-76
2023/09/15 00:21:21;;;;;;;19.75;14.07;;;;;;;;;;6216154;28;20353;-77
2023/09/15 00:24:24;;;;;;;21.67;15.15;;;;;;;;;;6223461;28;20058;-77
2023/09/15 00:27:27;;;;;;;22.38;15.30;;;;;;;;;;6220724;28;20383;-77
2023/09/15 00:30:29;;;;;;;22.38;14.50;;;;;;;;;;6223707;28;20093;-76
2023/09/15 00:33:31;;;;;;;20.42;14.60;;;;;;;;;;6221564;28;20086;-76
2023/09/15 00:36:32;;;;;;;19.92;14.93;;;;;;;;;;6223204;28;20054;-76
2023/09/15 00:39:36;;;;;;;19.70;13.68;;;;;;;;;;6212618;28;20054;-77
2023/09/15 00:42:38;;;;;;;18.65;13.07;;;;;;;;;;6221205;28;20365;-76
2023/09/15 00:45:40;;;;;;;21.75;13.95;;;;;;;;;;6221651;28;20130;-77
2023/09/15 00:48:42;;;;;;;22.30;15.32;;;;;;;;;;6223840;28;20242;-77
2023/09/15 00:51:44;;;;;;;22.65;15.43;;;;;;;;;;6218249;28;20093;-78
2023/09/15 00:54:47;;;;;;;22.80;15.68;;;;;;;;;;6219460;28;20270;-77
2023/09/15 00:57:52;;;;;;;26.30;16.58;;;;;;;;;;6224414;28;20069;-76
2023/09/15 01:00:54;;;;;;;19.10;15.32;;;;;;;;;;6220449;28;20410;-77
2023/09/15 01:03:56;;;;;;;23.25;17.25;;;;;;;;;;6224167;28;20087;-77
2023/09/15 01:06:58;;;;;;;21.85;16.85;;;;;;;;;;6222835;28;20064;-76
2023/09/15 01:10:03;;;;;;;25.13;17.95;;;;;;;;;;6222624;28;20376;-77
2023/09/15 01:13:06;;;;;;;23.13;17.73;;;;;;;;;;6220707;28;20333;-76
2023/09/15 01:16:12;;;;;;;26.15;19.15;;;;;;;;;;6221878;28;20290;-76
2023/09/15 01:19:33;;;;;;;21.42;17.15;;;;;;;;;;6221583;28;20054;-76
2023/09/15 01:23:06;;;;;;;21.95;18.80;;;;;;;;;;6222828;28;20338;-77
2023/09/15 01:26:35;;;;;;;21.77;18.58;;;;;;;;;;6122314;29;20052;-76
2023/09/15 01:29:45;;;;;;;27.50;19.98;;;;;;;;;;6122367;29;20057;-77
2023/09/15 01:32:49;;;;;;;22.25;17.73;;;;;;;;;;6121840;29;20064;-76
2023/09/15 01:35:51;;;;;;;;;;;;;;;;;;6122309;29;20056;-76
2023/09/15 01:38:53;;;;;;;22.50;16.70;;;;;;;;;;6121479;29;19930;-76
2023/09/15 01:41:55;;;;;;;18.40;15.43;;;;;;;;;;6125436;28;20078;-77
2023/09/15 01:44:58;;;;;;;18.52;15.25;;;;;;;;;;6124177;28;20062;-76
2023/09/15 01:48:01;;;;;;;18.88;14.07;;;;;;;;;;6124455;29;20056;-78
2023/09/15 01:51:05;;;;;;;17.63;15.27;;;;;;;;;;6121795;29;20277;-76
2023/09/15 01:54:08;;;;;;;16.27;13.82;;;;;;;;;;6119628;28;20048;-76
2023/09/15 01:57:10;;;;;;;16.17;13.47;;;;;;;;;;6120909;29;20426;-76
2023/09/15 02:00:14;;;;;;;16.15;13.05;;;;;;;;;;6127196;28;20458;-76
2023/09/15 02:03:16;;;;;;;14.40;11.80;;;;;;;;;;6197644;28;20242;-78
2023/09/15 02:06:18;;;;;;;14.25;11.65;;;;;;;;;;6196373;28;20050;-76
2023/09/15 02:09:20;;;;;;;13.20;11.68;;;;;;;;;;6198165;28;20050;-76
2023/09/15 02:12:22;;;;;;;13.00;10.70;;;;;;;;;;6203039;28;20062;-76
2023/09/15 02:15:25;;;;;;;12.90;10.88;;;;;;;;;;6201368;28;20081;-79
2023/09/15 02:18:27;;;;;;;14.27;10.65;;;;;;;;;;6202237;28;20065;-76
2023/09/15 02:21:29;;;;;;;11.32;9.70;;;;;;;;;;6201113;28;20046;-79
2023/09/15 02:24:31;;;;;;;14.02;10.32;;;;;;;;;;6202679;28;20061;-76
2023/09/15 02:27:33;;;;;;;9.88;8.43;;;;;;;;;;6201408;28;20259;-76
2023/09/15 02:30:38;;;;;;;10.88;8.95;;;;;;;;;;6200628;28;20041;-78
2023/09/15 02:33:40;;;;;;;10.90;9.05;;;;;;;;;;6199467;28;20069;-76
2023/09/15 02:36:44;;;;;;;12.50;9.10;;;;;;;;;;6203483;28;20064;-76
2023/09/15 02:39:49;;;;;;;11.43;8.05;;;;;;;;;;6211469;28;20061;-76
2023/09/15 02:42:51;;;;;;;10.18;7.30;;;;;;;;;;6223641;28;20066;-76
2023/09/15 02:45:54;;;;;;;10.65;7.90;;;;;;;;;;6228879;28;20046;-76
2023/09/15 02:49:01;;;;;;;10.30;7.32;;;;;;;;;;6219693;28;20350;-77
2023/09/15 02:52:05;;;;;;;9.38;7.25;;;;;;;;;;6224665;28;20707;-77
2023/09/15 02:55:08;;;;;;;;;;;;;;;;;;6223188;28;20050;-76
2023/09/15 02:58:13;;;;;;;11.95;7.78;;;;;;;;;;6225191;28;20101;-76
2023/09/15 03:01:16;;;;;;;10.90;8.05;;;;;;;;;;6215029;28;20096;-76
2023/09/15 03:04:21;;;;;;;;;;;;;;;;;;6212864;28;20058;-77
2023/09/15 03:07:23;;;;;;;10.38;8.05;;;;;;;;;;6226338;28;20205;-76
2023/09/15 03:10:25;;;;;;;12.18;8.02;;;;;;;;;;6224650;28;20109;-77
2023/09/15 03:13:27;;;;;;;9.25;7.32;;;;;;;;;;6225519;28;20050;-76
2023/09/15 03:16:30;;;;;;;10.40;7.20;;;;;;;;;;6224335;28;20045;-76
2023/09/15 03:19:34;;;;;;;6.30;5.60;;;;;;;;;;6225872;28;20245;-76
2023/09/15 03:22:35;;;;;;;;;;;;;;;;;;6225385;28;20112;-77
2023/09/15 03:25:40;;;;;;;7.82;5.10;;;;;;;;;;6221074;28;19926;-76
2023/09/15 03:28:42;;;;;;;5.90;4.88;;;;;;;;;;6212006;28;20057;-75
2023/09/15 03:31:45;;;;;;;6.75;4.75;;;;;;;;;;6227760;28;20054;-76
2023/09/15 03:34:47;;;;;;;4.85;4.28;;;;;;;;;;6223861;28;20105;-76
2023/09/15 03:37:48;;;;;;;4.85;3.53;;;;;;;;;;6224260;28;20103;-76
2023/09/15 03:40:51;;;;;;;4.07;3.25;;;;;;;;;;6223817;28;20072;-76
2023/09/15 03:43:52;;;;;;;3.88;2.70;;;;;;;;;;6222887;28;20561;-76
2023/09/15 03:46:56;;;;;;;3.85;2.53;;;;;;;;;;6221995;28;20121;-75
2023/09/15 03:49:58;;;;;;;;;;;;;;;;;;6223601;28;20058;-78
2023/09/15 03:53:00;;;;;;;2.63;2.17;;;;;;;;;;6224698;28;20491;-76
2023/09/15 03:56:10;;;;;;;4.25;2.33;;;;;;;;;;6223009;28;20066;-76
2023/09/15 03:59:12;;;;;;;3.60;2.60;;;;;;;;;;6221305;28;20121;-76
2023/09/15 04:02:45;;;;;;;4.15;2.20;;;;;;;;;;6221857;28;20348;-77
2023/09/15 04:05:47;;;;;;;4.78;2.28;;;;;;;;;;6221836;28;20112;-76
2023/09/15 04:08:53;;;;;;;3.92;2.38;;;;;;;;;;6219810;28;20270;-76
2023/09/15 04:11:55;;;;;;;2.17;1.85;;;;;;;;;;6223888;28;20046;-76
2023/09/15 04:15:00;;;;;;;2.45;2.08;;;;;;;;;;6219783;28;20054;-77
2023/09/15 04:18:07;;;;;;;3.25;2.30;;;;;;;;;;6213160;28;20152;-77
2023/09/15 04:24:26;;;;;;;3.55;2.20;;;;;;;;;;6208474;28;20105;-76
2023/09/15 04:27:28;;;;;;;2.67;2.35;;;;;;;;;;6224229;28;20092;-77
2023/09/15 04:30:30;;;;;;;4.50;3.00;;;;;;;;;;6224300;28;20050;-76
2023/09/15 04:33:33;;;;;;;6.13;3.50;;;;;;;;;;6221998;28;20053;-76
2023/09/15 04:36:45;;;;;;;;;;;;;;;;;;;;;
2023/09/15 04:39:49;;;;;;;5.68;3.70;;;;;;;;;;6216451;28;20142;-76
2023/09/15 04:42:51;;;;;;;6.05;3.92;;;;;;;;;;6219049;28;20070;-77
2023/09/15 04:46:20;;;;;;;6.53;4.38;;;;;;;;;;6221952;28;20058;-77
2023/09/15 04:49:24;;;;;;;5.80;3.92;;;;;;;;;;6146217;28;20051;-76
2023/09/15 04:52:32;;;;;;;7.95;4.43;;;;;;;;;;6147342;28;20057;-76
2023/09/15 04:55:35;;;;;;;5.90;4.10;;;;;;;;;;6144070;28;20058;-77
2023/09/15 04:58:38;;;;;;;6.55;4.38;;;;;;;;;;6146404;28;20105;-77
2023/09/15 05:01:40;;;;;;;5.38;4.03;;;;;;;;;;6119142;28;20055;-77
2023/09/15 05:04:48;;;;;;;5.70;4.60;;;;;;;;;;6144856;28;20283;-78
2023/09/15 05:07:52;;;;;;;8.80;4.30;;;;;;;;;;6137418;28;20046;-79
2023/09/15 05:11:21;;;;;;;6.88;3.80;;;;;;;;;;6145624;28;20051;-79
2023/09/15 05:14:41;;;;;;;5.18;3.63;;;;;;;;;;6140901;28;20047;-79
2023/09/15 05:18:10;;;;;;;5.63;4.10;;;;;;;;;;6138153;28;20099;-76
2023/09/15 05:25:23;;;;;;;7.00;4.50;;;;;;;;;;6163830;28;20061;-79
2023/09/15 05:28:28;;;;;;;6.30;4.88;;;;;;;;;;6214197;28;20238;-77
2023/09/15 05:31:30;;;;;;;7.03;4.68;;;;;;;;;;6221591;28;20046;-76
2023/09/15 05:34:50;;;;;;;8.18;4.68;;;;;;;;;;6220858;28;20389;-75
2023/09/15 05:37:53;;;;;;;6.53;4.45;;;;;;;;;;6221503;28;20140;-75
2023/09/15 05:40:55;;;;;;;7.00;4.93;;;;;;;;;;6219900;28;20232;-76
2023/09/15 05:43:57;;;;;;;4.47;3.53;;;;;;;;;;6213355;28;20045;-76
2023/09/15 05:47:43;;;;;;;5.78;3.22;;;;;;;;;;6208752;28;20594;-75
2023/09/15 05:50:45;;;;;;;3.35;2.65;;;;;;;;;;6225932;28;20061;-75
2023/09/15 05:53:48;;;;;;;3.30;2.65;;;;;;;;;;6226466;28;20452;-75
2023/09/15 05:56:51;;;;;;;4.70;2.63;;;;;;;;;;6225458;28;20069;-76
2023/09/15 05:59:53;;;;;;;2.78;2.40;;;;;;;;;;6225684;28;20133;-76
2023/09/15 06:02:55;;;;;;;4.07;2.55;;;;;;;;;;6223339;28;20242;-75
2023/09/15 06:05:56;;;;;;;3.08;2.38;;;;;;;;;;6226614;28;20113;-79
2023/09/15 06:09:00;;;;;;;4.03;2.92;;;;;;;;;;6225762;28;20285;-81
2023/09/15 06:12:02;;;;;;;4.95;3.10;;;;;;;;;;6225410;28;20246;-77
2023/09/15 06:15:12;;;;;;;3.50;2.60;;;;;;;;;;6210402;28;20061;-76
2023/09/15 06:18:14;;;;;;;4.85;3.30;;;;;;;;;;6225189;28;20049;-75
2023/09/15 06:21:16;;;;;;;4.20;3.17;;;;;;;;;;6214412;28;20046;-76
2023/09/15 06:24:25;;;;;;;5.00;3.65;;;;;;;;;;6227502;28;20053;-76
2023/09/15 06:27:27;;;;;;;6.07;3.10;;;;;;;;;;6224340;28;20045;-76
2023/09/15 06:30:30;;;;;;;5.35;3.70;;;;;;;;;;6224824;28;20050;-76
2023/09/15 06:33:32;;;;;;;7.00;3.63;;;;;;;;;;6224509;28;20065;-76
2023/09/15 06:36:33;;;;;;;4.53;3.42;;;;;;;;;;6225895;28;20061;-78
2023/09/15 06:39:36;;;;;;;5.70;3.20;;;;;;;;;;6214961;28;20063;-76
2023/09/15 06:42:38;;;;;;;6.93;3.95;;;;;;;;;;6224758;28;20060;-77
2023/09/15 06:45:40;;;;;;;5.05;3.70;;;;;;;;;;6225750;28;20052;-78
2023/09/15 06:48:42;;;;;;;4.47;3.58;;;;;;;;;;6220811;28;20065;-77
2023/09/15 06:51:50;;;;;;;6.85;3.55;;;;;;;;;;6223751;28;20442;-76
2023/09/15 06:54:53;;;;;;;4.55;3.67;;;;;;;;;;6222522;28;20101;-75
2023/09/15 06:57:54;;;;;;;5.07;3.03;;;;;;;;;;6225579;28;20057;-77
2023/09/15 07:00:56;;;;;;;4.80;3.15;;;;;;;;;;6224569;28;20274;-76
2023/09/15 07:03:59;;;;;;;6.65;3.80;;;;;;;;;;6223242;28;20330;-76
2023/09/15 07:07:00;;;;;;;5.47;3.47;;;;;;;;;;6223106;28;20045;-77
2023/09/15 07:10:08;;;;;;;6.13;4.40;;;;;;;;;;6225071;28;20061;-76
2023/09/15 07:13:24;;;;;;;6.90;3.80;;;;;;;;;;6222672;28;20049;-76
2023/09/15 07:16:26;;;;;;;6.95;3.33;;;;;;;;;;6222810;28;20126;-76
2023/09/15 07:19:28;;;;;;;6.47;3.55;;;;;;;;;;6225513;28;20058;-77
2023/09/15 07:22:30;;;;;;;4.63;3.42;;;;;;;;;;6224003;28;20148;-76
2023/09/15 07:25:33;;;;;;;4.78;3.50;;;;;;;;;;6223142;28;20050;-76
2023/09/15 07:28:34;;;;;;;4.18;3.40;;;;;;;;;;6220475;28;20160;-76
2023/09/15 07:31:37;;;;;;;6.13;4.53;;;;;;;;;;6221337;28;20054;-76
2023/09/15 07:34:39;;;;;;;6.95;4.72;;;;;;;;;;6223771;28;20054;-77
2023/09/15 07:37:40;;;;;;;6.88;4.30;;;;;;;;;;6223025;28;20056;-76
2023/09/15 07:40:46;;;;;;;6.30;4.13;;;;;;;;;;6225004;28;20085;-76
2023/09/15 07:43:48;;;;;;;7.10;4.40;;;;;;;;;;6224512;28;20045;-75
2023/09/15 07:46:50;;;;;;;4.95;3.95;;;;;;;;;;6224481;28;20058;-76
2023/09/15 07:49:52;;;;;;;6.38;4.47;;;;;;;;;;6224716;28;20076;-76
2023/09/15 07:52:54;;;;;;;5.13;3.58;;;;;;;;;;6224200;28;20074;-75
2023/09/15 07:55:57;;;;;;;4.68;3.42;;;;;;;;;;6221012;28;20066;-76
2023/09/15 07:58:59;;;;;;;4.88;3.55;;;;;;;;;;6223912;28;20054;-76
2023/09/15 08:02:03;;;;;;;6.80;3.83;;;;;;;;;;6223192;28;20118;-76
2023/09/15 08:05:09;;;;;;;7.13;4.55;;;;;;;;;;6223485;28;20118;-77
2023/09/15 08:08:13;;;;;;;5.75;3.75;;;;;;;;;;6221194;28;20042;-76
2023/09/15 08:11:16;;;;;;;6.10;4.32;;;;;;;;;;6223038;28;20121;-77
2023/09/15 08:14:18;;;;;;;6.75;4.30;;;;;;;;;;6221168;28;20172;-77
2023/09/15 08:17:19;;;;;;;8.57;4.68;;;;;;;;;;6221878;28;20242;-76
2023/09/15 08:20:22;;;;;;;8.70;4.90;;;;;;;;;;6222340;28;20060;-75
2023/09/15 08:23:23;;;;;;;7.63;5.25;;;;;;;;;;6222444;28;20108;-77
2023/09/15 08:26:26;;;;;;;6.43;4.68;;;;;;;;;;6223240;28;20049;-76
2023/09/15 08:29:37;;;;;;;7.57;4.78;;;;;;;;;;6213192;28;20050;-76
2023/09/15 08:32:39;;;;;;;5.82;4.55;;;;;;;;;;6220040;28;20350;-76
2023/09/15 08:35:41;;;;;;;6.53;5.45;;;;;;;;;;6218479;28;20061;-76
2023/09/15 08:38:43;;;;;;;5.95;4.85;;;;;;;;;;6222970;28;20112;-76
2023/09/15 08:41:51;;;;;;;6.93;4.70;;;;;;;;;;6221036;28;20070;-75
2023/09/15 08:44:54;;;;;;;6.10;4.45;;;;;;;;;;6210094;28;20248;-76
2023/09/15 08:47:59;;;;;;;4.85;4.35;;;;;;;;;;6220137;28;20054;-77
2023/09/15 08:51:03;;;;;;;6.60;4.32;;;;;;;;;;6219402;28;20073;-76
2023/09/15 08:54:05;;;;;;;6.38;3.97;;;;;;;;;;6221124;28;20049;-76
2023/09/15 08:57:09;;;;;;;4.63;3.57;;;;;;;;;;6221007;28;20082;-78
2023/09/15 09:00:12;;;;;;;4.82;3.83;;;;;;;;;;6222629;28;20472;-76
2023/09/15 09:03:15;;;;;;;5.15;4.18;;;;;;;;;;6210503;28;20140;-76
2023/09/15 09:07:15;;;;;;;3.95;3.55;;;;;;;;;;6220483;28;20126;-76
2023/09/15 09:10:57;;;;;;;3.88;3.50;;;;;;;;;;6220149;28;20107;-76
2023/09/15 09:14:11;;;;;;;3.97;3.50;;;;;;;;;;6217282;28;20424;-76
2023/09/15 09:17:13;;;;;;;5.95;4.28;;;;;;;;;;6217900;28;20080;-77
2023/09/15 09:20:29;;;;;;;4.65;4.25;;;;;;;;;;6212885;28;20042;-76
2023/09/15 09:23:31;;;;;;;4.40;4.00;;;;;;;;;;6222283;28;20401;-76
2023/09/15 09:26:34;;;;;;;9.80;4.95;;;;;;;;;;6221346;28;20341;-77
2023/09/15 09:29:37;;;;;;;5.50;4.80;;;;;;;;;;6221668;28;20100;-77
2023/09/15 09:32:42;;;;;;;7.32;4.50;;;;;;;;;;6223905;28;20073;-78
2023/09/15 09:35:53;;;;;;;6.38;4.80;;;;;;;;;;6221409;28;20058;-77
2023/09/15 09:39:01;;;;;;;6.00;4.55;;;;;;;;;;6220141;28;20057;-77
2023/09/15 09:42:07;;;;;;;4.72;3.92;;;;;;;;;;6198612;28;20349;-78
2023/09/15 09:45:33;;;;;;;5.18;4.20;;;;;;;;;;6172666;28;20249;-76
2023/09/15 09:48:38;;;;;;;4.55;4.10;;;;;;;;;;6197000;28;20062;-76
2023/09/15 09:51:40;;;;;;;6.28;4.82;;;;;;;;;;6196558;28;20372;-77
2023/09/15 09:54:44;;;;;;;5.63;4.05;;;;;;;;;;6192719;28;20060;-76
2023/09/15 09:57:46;;;;;;;7.00;4.47;;;;;;;;;;6195482;28;20050;-76
2023/09/15 10:04:21;;;;;;;7.60;5.07;;;;;;;;;;6193139;28;20057;-76
2023/09/15 10:07:24;;;;;;;5.47;4.72;;;;;;;;;;6194559;28;20062;-76
2023/09/15 10:10:30;;;;;;;5.68;4.50;;;;;;;;;;6196377;28;20334;-76
2023/09/15 10:13:32;;;;;;;5.78;4.15;;;;;;;;;;6194505;28;20216;-76
2023/09/15 10:16:38;;;;;;;6.63;4.05;;;;;;;;;;6184746;28;20069;-77
2023/09/15 10:19:42;;;;;;;6.70;4.93;;;;;;;;;;6193848;28;20050;-76
2023/09/15 10:22:44;;;;;;;6.63;4.63;;;;;;;;;;6196056;28;20066;-76
2023/09/15 10:25:48;;;;;;;5.10;4.32;;;;;;;;;;6194758;28;20078;-76
2023/09/15 10:28:51;;;;;;;5.50;4.28;;;;;;;;;;6194466;28;20090;-77
2023/09/15 10:31:59;;;;;;;5.80;5.18;;;;;;;;;;6198075;28;20347;-77
2023/09/15 10:35:00;;;;;;;5.50;4.15;;;;;;;;;;6198984;28;20063;-76
2023/09/15 10:38:05;;;;;;;5.35;4.25;;;;;;;;;;6199326;28;20055;-76
2023/09/15 10:41:31;;;;;;;6.00;4.72;;;;;;;;;;6217797;28;20146;-76
2023/09/15 10:44:33;;;;;;;5.40;4.40;;;;;;;;;;6226871;28;20052;-76
2023/09/15 10:47:36;;;;;;;4.78;3.90;;;;;;;;;;6216789;28;20279;-76
2023/09/15 10:50:39;;;;;;;5.57;4.38;;;;;;;;;;6225584;28;20484;-77
2023/09/15 10:53:44;;;;;;;;;;;;;;;;;;6223774;28;20053;-80
2023/09/15 11:00:46;;;;;;;5.28;4.07;;;;;;;;;;6224719;28;20104;-76
2023/09/15 11:03:49;;;;;;;5.07;4.57;;;;;;;;;;6209889;28;20097;-76
2023/09/15 11:06:53;;;;;;;5.68;4.40;;;;;;;;;;6224950;28;20042;-76
2023/09/15 11:09:57;;;;;;;4.45;4.03;;;;;;;;;;6222375;28;20038;-76
2023/09/15 11:13:01;;;;;;;4.63;3.40;;;;;;;;;;6225397;28;20258;-75
2023/09/15 11:16:03;;;;;;;5.68;3.85;;;;;;;;;;6223949;28;20054;-75
2023/09/15 11:19:07;;;;;;;5.07;3.97;;;;;;;;;;6224479;28;20054;-77
2023/09/15 11:22:12;;;;;;;4.35;3.58;;;;;;;;;;6226557;28;20053;-76
2023/09/15 11:25:15;;;;;;;5.10;4.60;;;;;;;;;;6223797;28;20080;-76
2023/09/15 11:28:17;;;;;;;4.88;4.40;;;;;;;;;;6225934;28;20049;-76
2023/09/15 11:31:19;;;;;;;4.97;4.30;;;;;;;;;;6222492;28;20307;-76
2023/09/15 11:34:22;;;;;;;6.95;4.80;;;;;;;;;;6224261;28;20092;-76
2023/09/15 11:37:24;;;;;;;5.45;4.50;;;;;;;;;;6225513;28;20049;-78
2023/09/15 11:40:26;;;;;;;4.70;4.15;;;;;;;;;;6220718;28;20050;-76
2023/09/15 11:43:32;;;;;;;4.30;3.90;;;;;;;;;;6223501;28;20099;-76
2023/09/15 11:46:35;;;;;;;4.40;3.97;;;;;;;;;;6223878;28;20652;-77
2023/09/15 11:49:38;;;;;;;;;;;;;;;;;;6225819;28;20150;-77
2023/09/15 11:52:40;;;;;;;4.60;4.20;;;;;;;;;;6221498;28;19929;-78
2023/09/15 11:55:44;;;;;;;4.75;4.22;;;;;;;;;;6214636;28;20363;-77
2023/09/15 11:58:53;;;;;;;7.32;4.13;;;;;;;;;;6222025;28;20064;-76
2023/09/15 12:02:01;;;;;;;4.47;3.83;;;;;;;;;;6222681;28;20218;-76
2023/09/15 12:05:06;;;;;;;5.05;4.30;;;;;;;;;;6222511;28;20149;-77
2023/09/15 12:08:28;;;;;;;3.97;3.42;;;;;;;;;;6213142;28;20057;-76
2023/09/15 12:11:33;;;;;;;;;;;;;;;;;;6213496;28;20128;-76
2023/09/15 12:14:46;;;;;;;5.13;3.88;;;;;;;;;;6224942;28;19932;-76
2023/09/15 12:22:16;;;;;;;8.48;3.72;;;;;;;;;;6209260;28;20045;-78
2023/09/15 12:29:17;;;;;;;4.00;3.40;;;;;;;;;;6223247;28;20156;-77
2023/09/15 12:32:48;;;;;;;7.30;3.50;;;;;;;;;;6211469;28;20058;-77
2023/09/15 12:35:53;;;;;;;4.07;3.70;;;;;;;;;;6216697;28;20046;-77
2023/09/15 12:38:57;;;;;;;5.55;3.92;;;;;;;;;;6221405;28;20427;-77
2023/09/15 12:42:05;;;;;;;5.45;3.90;;;;;;;;;;6219892;28;20073;-78
2023/09/15 12:45:14;;;;;;;3.22;2.80;;;;;;;;;;6221679;28;20233;-77
2023/09/15 12:52:47;;;;;;;2.83;2.60;;;;;;;;;;6194465;28;20302;-76
2023/09/15 13:00:18;;;;;;;3.75;3.28;;;;;;;;;;6211153;28;20066;-76
2023/09/15 13:04:02;;;;;;;3.45;3.15;;;;;;;;;;6179146;28;20051;-77
2023/09/15 13:18:08;;;;;;;4.55;3.58;;;;;;;;;;6143535;28;20146;-77
2023/09/15 13:28:49;;;;;;;4.47;3.72;;;;;;;;;;6167055;28;20371;-77
2023/09/15 14:36:47;;;;;;;;;;;;;;;;;;;;;
2023/09/15 15:24:05;;;;;;;4.00;2.70;;;;;;;;;;5937689;29;20063;-77
2023/09/15 15:30:25;;;;;;;3.63;3.20;;;;;;;;;;5920852;29;20290;-77
2023/09/15 15:33:30;;;;;;;3.20;2.72;;;;;;;;;;5943428;29;20244;-77
2023/09/15 15:36:43;;;;;;;5.18;3.72;;;;;;;;;;5940663;29;20097;-77
2023/09/15 15:39:54;;;;;;;5.10;4.50;;;;;;;;;;5964933;29;20066;-77
2023/09/15 15:46:23;;;;;;;;;;;;;;;;;;;;;
2023/09/15 15:49:39;;;;;;;4.72;4.07;;;;;;;;;;6094388;29;20044;-76
2023/09/15 15:52:46;;;;;;;5.05;4.55;;;;;;;;;;6096337;29;20067;-76
2023/09/15 15:55:50;;;;;;;4.88;4.13;;;;;;;;;;6107657;29;20352;-77
2023/09/15 15:58:52;;;;;;;6.63;4.45;;;;;;;;;;6178756;28;20334;-78
2023/09/15 16:02:03;;;;;;;4.83;4.00;;;;;;;;;;6199948;28;20054;-77
2023/09/15 16:12:29;;;;;;;5.80;3.88;;;;;;;;;;6156096;28;20049;-77
2023/09/15 16:15:55;;;;;;;5.25;4.10;;;;;;;;;;6192218;28;20046;-77
2023/09/15 16:19:02;;;;;;;6.30;4.60;;;;;;;;;;6197683;28;20062;-77
2023/09/15 16:25:32;;;;;;;6.35;4.47;;;;;;;;;;6196061;28;20047;-77
2023/09/15 16:28:38;;;;;;;6.13;4.10;;;;;;;;;;6197685;28;20054;-80
2023/09/15 16:31:41;;;;;;;4.25;3.55;;;;;;;;;;6159758;28;20054;-77
2023/09/15 16:34:43;;;;;;;5.72;4.40;;;;;;;;;;6197579;28;20534;-77
2023/09/15 16:37:45;;;;;;;5.57;4.55;;;;;;;;;;6198753;28;20129;-76
2023/09/15 16:44:14;;;;;;;5.10;3.95;;;;;;;;;;6207240;28;20069;-77
2023/09/15 16:50:43;;;;;;;5.30;4.15;;;;;;;;;;6207937;28;20096;-78
2023/09/15 16:53:46;;;;;;;7.03;4.15;;;;;;;;;;6219577;28;20387;-76
2023/09/15 16:56:54;;;;;;;5.43;4.03;;;;;;;;;;6222059;28;20054;-77
2023/09/15 17:00:00;;;;;;;5.30;3.67;;;;;;;;;;6218755;28;20099;-76
2023/09/15 17:03:20;;;;;;;4.47;3.65;;;;;;;;;;6223440;28;20070;-77
2023/09/15 17:14:47;;;;;;;3.92;3.22;;;;;;;;;;6171559;28;20046;-77
2023/09/15 17:18:01;;;;;;;4.45;3.38;;;;;;;;;;6079350;29;20049;-76
2023/09/15 17:52:06;;;;;;;3.58;3.05;;;;;;;;;;5942445;29;20270;-77
2023/09/15 17:55:38;;;;;;;8.85;4.25;;;;;;;;;;6007994;29;20095;-77
2023/09/15 17:59:11;;;;;;;5.05;4.10;;;;;;;;;;6004139;29;20065;-82
2023/09/15 18:02:40;;;;;;;9.95;4.75;;;;;;;;;;6041492;29;20126;-81
2023/09/15 18:14:04;;;;;;;;;;;;;;;;;;;;;
2023/09/15 18:17:07;;;;;;;5.88;4.13;;;;;;;;;;6117230;28;20368;-83
2023/09/15 18:20:25;;;;;;;5.18;4.05;;;;;;;;;;6185589;28;20334;-81
2023/09/15 18:23:39;;;;;;;6.97;4.85;;;;;;;;;;6181001;28;20093;-85
2023/09/15 18:26:44;;;;;;;8.95;5.03;;;;;;;;;;6193984;28;20046;-78
2023/09/15 18:29:46;;;;;;;8.55;4.32;;;;;;;;;;6192928;28;20354;-78
2023/09/15 18:32:49;;;;;;;8.77;4.70;;;;;;;;;;6195379;28;20342;-79
2023/09/15 18:35:53;;;;;;;5.63;4.75;;;;;;;;;;6195864;28;20143;-81
2023/09/15 18:39:21;;;;;;;7.45;4.38;;;;;;;;;;6198622;28;20330;-83
2023/09/15 19:33:42;;;;;;;13.52;8.13;;;;;;;;;;5974233;29;20056;-78
2023/09/15 19:36:48;;;;;;;8.60;5.93;;;;;;;;;;5964433;29;20065;-78
2023/09/15 19:39:55;;;;;;;10.20;5.72;;;;;;;;;;5977582;29;20066;-78
2023/09/15 19:42:57;;;;;;;8.25;6.45;;;;;;;;;;6041970;29;20101;-79
2023/09/15 19:46:28;;;;;;;11.10;7.20;;;;;;;;;;6091012;29;20079;-79
2023/09/15 19:49:30;;;;;;;9.77;6.70;;;;;;;;;;6112234;29;20047;-82
2023/09/15 19:52:36;;;;;;;8.82;6.20;;;;;;;;;;6190204;28;20058;-79
2023/09/15 19:55:43;;;;;;;14.48;7.38;;;;;;;;;;6206660;28;20110;-80
2023/09/15 19:58:45;;;;;;;13.55;8.95;;;;;;;;;;6226426;28;20419;-82
2023/09/15 20:01:48;;;;;;;10.35;7.78;;;;;;;;;;6224570;28;20053;-83
2023/09/15 20:04:50;;;;;;;9.18;7.05;;;;;;;;;;6223181;28;20065;-83
2023/09/15 20:08:08;;;;;;;10.25;8.00;;;;;;;;;;6225284;28;20072;-83
2023/09/15 20:11:41;;;;;;;11.43;8.40;;;;;;;;;;6222727;28;20129;-80
2023/09/15 20:18:43;;;;;;;13.55;9.07;;;;;;;;;;6174147;28;20168;-81
2023/09/15 20:21:47;;;;;;;11.32;8.73;;;;;;;;;;6224153;28;20069;-78
2023/09/15 20:25:04;;;;;;;10.18;7.95;;;;;;;;;;6211392;28;20129;-80
2023/09/15 20:28:06;;;;;;;9.90;6.93;;;;;;;;;;6223612;28;20226;-81
2023/09/15 20:31:08;;;;;;;9.43;7.35;;;;;;;;;;6212425;28;20053;-80
2023/09/15 20:34:11;;;;;;;9.10;6.82;;;;;;;;;;6224870;28;20058;-81
2023/09/15 20:37:13;;;;;;;10.98;6.45;;;;;;;;;;6221970;28;20057;-79
2023/09/15 20:40:16;;;;;;;10.70;6.30;;;;;;;;;;6222775;28;20050;-83
2023/09/15 20:43:21;;;;;;;8.70;6.43;;;;;;;;;;6221364;28;20061;-78
2023/09/15 20:46:25;;;;;;;11.27;6.95;;;;;;;;;;6218638;28;20066;-79
2023/09/15 20:49:28;;;;;;;8.20;6.13;;;;;;;;;;6222976;28;20045;-76
2023/09/15 20:52:30;;;;;;;6.85;5.28;;;;;;;;;;6219748;28;20281;-77
2023/09/15 20:55:36;;;;;;;8.30;5.25;;;;;;;;;;6210342;28;20046;-76
2023/09/15 20:58:38;;;;;;;7.25;4.85;;;;;;;;;;6219316;28;20266;-76
2023/09/15 21:01:40;;;;;;;8.32;5.45;;;;;;;;;;6219176;28;20054;-76
2023/09/15 21:04:42;;;;;;;8.77;5.47;;;;;;;;;;6216804;28;20053;-76
2023/09/15 21:07:54;;;;;;;10.47;6.00;;;;;;;;;;6218118;28;20077;-75
2023/09/15 21:10:59;;;;;;;7.05;5.00;;;;;;;;;;6210756;28;20139;-76
2023/09/15 21:14:01;;;;;;;7.68;5.13;;;;;;;;;;6180843;28;20184;-76
2023/09/15 21:17:07;;;;;;;5.43;4.68;;;;;;;;;;6218929;28;20255;-76
2023/09/15 21:20:22;;;;;;;;;;;;;;;;;;;;;
2023/09/15 21:23:32;;;;;;;5.40;4.45;;;;;;;;;;6211985;28;20334;-75
2023/09/15 21:26:37;;;;;;;7.28;4.95;;;;;;;;;;6219933;28;20120;-75
2023/09/15 21:29:44;;;;;;;7.47;5.03;;;;;;;;;;6220319;28;20131;-76
2023/09/15 21:32:46;;;;;;;7.00;5.20;;;;;;;;;;6217780;28;20050;-75
2023/09/15 21:36:29;;;;;;;6.78;4.57;;;;;;;;;;6214654;28;20068;-76
2023/09/15 21:39:46;;;;;;;6.03;4.38;;;;;;;;;;6211746;28;20223;-75
2023/09/15 21:42:49;;;;;;;5.75;4.47;;;;;;;;;;6212949;28;20050;-76
2023/09/15 21:45:53;;;;;;;7.20;4.93;;;;;;;;;;6194707;28;20164;-78
2023/09/15 21:49:11;;;;;;;7.50;4.57;;;;;;;;;;6221410;28;20061;-79
2023/09/15 21:52:20;;;;;;;5.72;4.75;;;;;;;;;;6218438;28;20075;-76
2023/09/15 21:55:23;;;;;;;7.78;4.45;;;;;;;;;;6219103;28;20062;-76
2023/09/15 21:58:26;;;;;;;8.75;5.45;;;;;;;;;;6217341;28;20049;-77
2023/09/15 22:01:28;;;;;;;6.78;4.65;;;;;;;;;;6220143;28;20069;-77
2023/09/15 22:04:30;;;;;;;6.78;4.60;;;;;;;;;;6213788;28;20045;-77
2023/09/15 22:07:38;;;;;;;6.35;5.30;;;;;;;;;;6218892;28;20050;-77
2023/09/15 22:14:39;;;;;;;7.88;4.53;;;;;;;;;;6141200;28;20118;-76
2023/09/15 22:17:43;;;;;;;6.67;5.03;;;;;;;;;;6145649;28;20280;-77
2023/09/15 22:20:45;;;;;;;6.80;4.88;;;;;;;;;;6147830;28;20067;-76
2023/09/15 22:23:57;;;;;;;;;;;;;;;;;;;;;
2023/09/15 22:26:59;;;;;;;6.88;4.97;;;;;;;;;;6145772;28;20118;-76
2023/09/15 22:30:03;;;;;;;7.47;5.30;;;;;;;;;;6147242;28;20242;-80
2023/09/15 22:33:12;;;;;;;7.20;4.82;;;;;;;;;;6151102;28;20131;-76
2023/09/15 22:36:14;;;;;;;8.02;4.50;;;;;;;;;;6139825;28;20110;-77
2023/09/15 22:39:17;;;;;;;5.47;4.70;;;;;;;;;;6150972;28;20719;-76
2023/09/15 22:42:22;;;;;;;6.10;5.10;;;;;;;;;;6150226;28;20053;-76
2023/09/15 22:45:32;;;;;;;7.45;4.97;;;;;;;;;;6149185;28;20051;-76
2023/09/15 22:48:41;;;;;;;8.13;5.32;;;;;;;;;;6145730;28;20069;-76
2023/09/15 22:51:49;;;;;;;7.38;5.18;;;;;;;;;;6206276;28;20121;-76
2023/09/15 22:55:00;;;;;;;8.35;5.32;;;;;;;;;;6226275;28;20058;-77
2023/09/15 22:58:14;;;;;;;9.75;5.03;;;;;;;;;;6202991;28;20126;-77
2023/09/15 23:01:19;;;;;;;8.50;5.53;;;;;;;;;;6220130;28;20072;-75
2023/09/15 23:04:30;;;;;;;8.10;5.07;;;;;;;;;;6219786;28;20647;-79
2023/09/15 23:07:33;;;;;;;7.13;5.47;;;;;;;;;;6221086;28;20054;-76
2023/09/15 23:10:35;;;;;;;7.70;5.45;;;;;;;;;;6222709;28;20055;-78
2023/09/15 23:13:36;;;;;;;7.30;5.47;;;;;;;;;;6225626;28;20062;-78
2023/09/15 23:16:38;;;;;;;8.30;5.40;;;;;;;;;;6223250;28;20348;-77
2023/09/15 23:19:42;;;;;;;6.40;5.55;;;;;;;;;;6227364;28;20337;-77
2023/09/15 23:22:47;;;;;;;7.30;5.10;;;;;;;;;;6222223;28;20072;-78
2023/09/15 23:25:49;;;;;;;7.78;6.03;;;;;;;;;;6222169;28;20068;-77
2023/09/15 23:28:51;;;;;;;8.77;5.28;;;;;;;;;;6225525;28;20046;-76
2023/09/15 23:31:55;;;;;;;6.28;5.15;;;;;;;;;;6221028;28;20054;-78